sensor_id;sensor_type;location;lat;lon;timestamp;P1;durP1;ratioP1;P2;durP2;ratioP2
67798;SDS011;54596;43.216;27.904;2023-06-22T00:02:12;25.92;;;17.38;;
67798;SDS011;54596;43.216;27.904;2023-06-22T00:04:38;25.50;;;16.83;;
67798;SDS011;54596;43.216;27.904;2023-06-22T00:07:03;29.08;;;16.38;;
67798;SDS011;54596;43.216;27.904;2023-06-22T00:09:29;27.13;;;16.95;;
67798;SDS011;54596;43.216;27.904;2023-06-22T00:11:55;27.33;;;16.40;;
67798;SDS011;54596;43.216;27.904;2023-06-22T00:14:20;25.80;;;16.95;;
67798;SDS011;54596;43.216;27.904;2023-06-22T00:16:46;24.63;;;16.23;;
67798;SDS011;54596;43.216;27.904;2023-06-22T00:19:14;23.33;;;16.27;;
67798;SDS011;54596;43.216;27.904;2023-06-22T00:21:44;26.50;;;17.08;;
67798;SDS011;54596;43.216;27.904;2023-06-22T00:24:12;32.22;;;18.13;;
67798;SDS011;54596;43.216;27.904;2023-06-22T00:26:37;29.67;;;17.48;;
67798;SDS011;54596;43.216;27.904;2023-06-22T00:29:03;29.85;;;16.98;;
67798;SDS011;54596;43.216;27.904;2023-06-22T00:31:28;26.08;;;17.83;;
67798;SDS011;54596;43.216;27.904;2023-06-22T00:33:54;28.70;;;17.98;;
67798;SDS011;54596;43.216;27.904;2023-06-22T00:36:19;28.00;;;18.65;;
67798;SDS011;54596;43.216;27.904;2023-06-22T00:38:44;27.90;;;18.45;;
67798;SDS011;54596;43.216;27.904;2023-06-22T00:41:10;25.45;;;18.25;;
67798;SDS011;54596;43.216;27.904;2023-06-22T00:43:35;34.60;;;18.55;;
67798;SDS011;54596;43.216;27.904;2023-06-22T00:46:01;26.48;;;18.55;;
67798;SDS011;54596;43.216;27.904;2023-06-22T00:48:26;28.55;;;18.17;;
67798;SDS011;54596;43.216;27.904;2023-06-22T00:50:52;26.15;;;17.50;;
67798;SDS011;54596;43.216;27.904;2023-06-22T00:53:20;29.98;;;17.08;;
67798;SDS011;54596;43.216;27.904;2023-06-22T00:55:46;29.08;;;18.00;;
67798;SDS011;54596;43.216;27.904;2023-06-22T00:58:13;24.70;;;17.77;;
67798;SDS011;54596;43.216;27.904;2023-06-22T01:00:39;27.30;;;18.67;;
67798;SDS011;54596;43.216;27.904;2023-06-22T01:03:06;29.60;;;18.05;;
67798;SDS011;54596;43.216;27.904;2023-06-22T01:05:35;29.30;;;17.77;;
67798;SDS011;54596;43.216;27.904;2023-06-22T01:16:07;28.33;;;18.50;;
67798;SDS011;54596;43.216;27.904;2023-06-22T01:18:40;28.02;;;17.45;;
67798;SDS011;54596;43.216;27.904;2023-06-22T01:21:07;28.65;;;19.02;;
67798;SDS011;54596;43.216;27.904;2023-06-22T01:26:19;29.33;;;17.42;;
67798;SDS011;54596;43.216;27.904;2023-06-22T01:28:53;27.42;;;17.05;;
67798;SDS011;54596;43.216;27.904;2023-06-22T01:31:23;27.17;;;19.85;;
67798;SDS011;54596;43.216;27.904;2023-06-22T01:33:51;28.65;;;17.70;;
67798;SDS011;54596;43.216;27.904;2023-06-22T01:36:19;27.25;;;16.48;;
67798;SDS011;54596;43.216;27.904;2023-06-22T01:38:47;26.30;;;17.20;;
67798;SDS011;54596;43.216;27.904;2023-06-22T01:41:14;30.65;;;17.17;;
67798;SDS011;54596;43.216;27.904;2023-06-22T01:43:41;23.33;;;16.33;;
67798;SDS011;54596;43.216;27.904;2023-06-22T01:46:07;25.80;;;16.23;;
67798;SDS011;54596;43.216;27.904;2023-06-22T01:48:33;28.23;;;15.93;;
67798;SDS011;54596;43.216;27.904;2023-06-22T01:50:59;26.60;;;15.90;;
67798;SDS011;54596;43.216;27.904;2023-06-22T01:53:25;26.60;;;15.25;;
67798;SDS011;54596;43.216;27.904;2023-06-22T01:55:50;23.67;;;15.90;;
67798;SDS011;54596;43.216;27.904;2023-06-22T01:58:16;24.92;;;15.05;;
67798;SDS011;54596;43.216;27.904;2023-06-22T02:00:48;26.85;;;15.80;;
67798;SDS011;54596;43.216;27.904;2023-06-22T02:03:19;24.95;;;16.60;;
67798;SDS011;54596;43.216;27.904;2023-06-22T02:05:49;27.83;;;18.13;;
67798;SDS011;54596;43.216;27.904;2023-06-22T02:08:21;27.48;;;18.23;;
67798;SDS011;54596;43.216;27.904;2023-06-22T02:10:50;30.52;;;20.27;;
67798;SDS011;54596;43.216;27.904;2023-06-22T02:13:18;31.65;;;21.58;;
67798;SDS011;54596;43.216;27.904;2023-06-22T02:15:45;40.50;;;23.83;;
67798;SDS011;54596;43.216;27.904;2023-06-22T02:18:11;31.38;;;22.27;;
67798;SDS011;54596;43.216;27.904;2023-06-22T02:20:38;30.80;;;21.40;;
67798;SDS011;54596;43.216;27.904;2023-06-22T02:23:05;33.20;;;18.73;;
67798;SDS011;54596;43.216;27.904;2023-06-22T02:25:32;28.85;;;17.58;;
67798;SDS011;54596;43.216;27.904;2023-06-22T02:27:58;32.42;;;19.92;;
67798;SDS011;54596;43.216;27.904;2023-06-22T02:30:24;27.42;;;20.17;;
67798;SDS011;54596;43.216;27.904;2023-06-22T02:32:49;31.48;;;19.13;;
67798;SDS011;54596;43.216;27.904;2023-06-22T02:35:29;33.25;;;18.88;;
67798;SDS011;54596;43.216;27.904;2023-06-22T02:38:01;27.65;;;17.45;;
67798;SDS011;54596;43.216;27.904;2023-06-22T02:40:28;33.15;;;19.48;;
67798;SDS011;54596;43.216;27.904;2023-06-22T02:42:54;30.17;;;18.20;;
67798;SDS011;54596;43.216;27.904;2023-06-22T02:45:20;32.08;;;18.98;;
67798;SDS011;54596;43.216;27.904;2023-06-22T02:47:46;27.63;;;17.60;;
67798;SDS011;54596;43.216;27.904;2023-06-22T02:50:13;31.73;;;17.77;;
67798;SDS011;54596;43.216;27.904;2023-06-22T02:52:39;32.92;;;15.35;;
67798;SDS011;54596;43.216;27.904;2023-06-22T02:55:05;27.45;;;15.43;;
67798;SDS011;54596;43.216;27.904;2023-06-22T02:57:32;28.60;;;15.30;;
67798;SDS011;54596;43.216;27.904;2023-06-22T02:59:57;22.65;;;14.40;;
67798;SDS011;54596;43.216;27.904;2023-06-22T03:02:23;29.85;;;14.27;;
67798;SDS011;54596;43.216;27.904;2023-06-22T03:04:49;23.17;;;13.98;;
67798;SDS011;54596;43.216;27.904;2023-06-22T03:07:14;28.60;;;18.98;;
67798;SDS011;54596;43.216;27.904;2023-06-22T03:09:43;24.95;;;16.63;;
67798;SDS011;54596;43.216;27.904;2023-06-22T03:12:08;27.67;;;20.42;;
67798;SDS011;54596;43.216;27.904;2023-06-22T03:14:34;26.45;;;17.58;;
67798;SDS011;54596;43.216;27.904;2023-06-22T03:16:59;22.65;;;16.08;;
67798;SDS011;54596;43.216;27.904;2023-06-22T03:19:28;21.45;;;14.10;;
67798;SDS011;54596;43.216;27.904;2023-06-22T03:21:56;23.55;;;13.23;;
67798;SDS011;54596;43.216;27.904;2023-06-22T03:24:25;33.53;;;17.67;;
67798;SDS011;54596;43.216;27.904;2023-06-22T03:26:50;23.92;;;14.50;;
67798;SDS011;54596;43.216;27.904;2023-06-22T03:29:16;23.27;;;14.27;;
67798;SDS011;54596;43.216;27.904;2023-06-22T03:31:41;19.20;;;12.82;;
67798;SDS011;54596;43.216;27.904;2023-06-22T03:34:07;21.55;;;13.23;;
67798;SDS011;54596;43.216;27.904;2023-06-22T03:36:32;25.55;;;12.90;;
67798;SDS011;54596;43.216;27.904;2023-06-22T03:38:58;25.80;;;13.52;;
67798;SDS011;54596;43.216;27.904;2023-06-22T03:41:23;23.00;;;13.40;;
67798;SDS011;54596;43.216;27.904;2023-06-22T03:43:49;18.95;;;12.40;;
67798;SDS011;54596;43.216;27.904;2023-06-22T03:46:14;26.17;;;11.93;;
67798;SDS011;54596;43.216;27.904;2023-06-22T03:48:40;21.00;;;13.55;;
67798;SDS011;54596;43.216;27.904;2023-06-22T03:51:05;22.77;;;12.95;;
67798;SDS011;54596;43.216;27.904;2023-06-22T03:53:31;21.77;;;13.18;;
67798;SDS011;54596;43.216;27.904;2023-06-22T03:55:56;19.95;;;12.45;;
67798;SDS011;54596;43.216;27.904;2023-06-22T03:58:22;21.92;;;12.82;;
67798;SDS011;54596;43.216;27.904;2023-06-22T04:00:48;22.55;;;12.80;;
67798;SDS011;54596;43.216;27.904;2023-06-22T04:03:16;23.45;;;12.65;;
67798;SDS011;54596;43.216;27.904;2023-06-22T04:05:43;19.40;;;11.60;;
67798;SDS011;54596;43.216;27.904;2023-06-22T04:08:09;20.70;;;11.18;;
67798;SDS011;54596;43.216;27.904;2023-06-22T04:10:35;24.48;;;11.45;;
67798;SDS011;54596;43.216;27.904;2023-06-22T04:13:00;20.75;;;12.52;;
67798;SDS011;54596;43.216;27.904;2023-06-22T04:15:26;23.30;;;11.00;;
67798;SDS011;54596;43.216;27.904;2023-06-22T04:17:51;22.73;;;10.90;;
67798;SDS011;54596;43.216;27.904;2023-06-22T04:20:18;28.25;;;13.80;;
67798;SDS011;54596;43.216;27.904;2023-06-22T04:22:43;39.00;;;16.75;;
67798;SDS011;54596;43.216;27.904;2023-06-22T04:25:10;34.30;;;12.45;;
67798;SDS011;54596;43.216;27.904;2023-06-22T04:27:35;34.70;;;12.30;;
67798;SDS011;54596;43.216;27.904;2023-06-22T04:30:08;25.92;;;11.95;;
67798;SDS011;54596;43.216;27.904;2023-06-22T04:32:34;21.92;;;12.88;;
67798;SDS011;54596;43.216;27.904;2023-06-22T04:35:03;23.38;;;12.57;;
67798;SDS011;54596;43.216;27.904;2023-06-22T04:37:32;24.30;;;15.95;;
67798;SDS011;54596;43.216;27.904;2023-06-22T04:39:58;21.92;;;14.35;;
67798;SDS011;54596;43.216;27.904;2023-06-22T04:42:26;24.15;;;11.50;;
67798;SDS011;54596;43.216;27.904;2023-06-22T04:44:52;19.73;;;10.73;;
67798;SDS011;54596;43.216;27.904;2023-06-22T04:47:17;24.08;;;11.80;;
67798;SDS011;54596;43.216;27.904;2023-06-22T04:49:43;22.08;;;12.25;;
67798;SDS011;54596;43.216;27.904;2023-06-22T04:52:09;24.05;;;13.40;;
67798;SDS011;54596;43.216;27.904;2023-06-22T04:54:37;22.00;;;11.80;;
67798;SDS011;54596;43.216;27.904;2023-06-22T04:57:04;27.50;;;14.23;;
67798;SDS011;54596;43.216;27.904;2023-06-22T04:59:34;25.70;;;14.00;;
67798;SDS011;54596;43.216;27.904;2023-06-22T05:02:01;18.38;;;10.65;;
67798;SDS011;54596;43.216;27.904;2023-06-22T05:04:28;24.17;;;12.15;;
67798;SDS011;54596;43.216;27.904;2023-06-22T05:06:58;22.92;;;11.32;;
67798;SDS011;54596;43.216;27.904;2023-06-22T05:09:28;22.77;;;10.77;;
67798;SDS011;54596;43.216;27.904;2023-06-22T05:11:54;25.35;;;12.00;;
67798;SDS011;54596;43.216;27.904;2023-06-22T05:14:21;20.55;;;10.27;;
67798;SDS011;54596;43.216;27.904;2023-06-22T05:16:46;20.63;;;10.18;;
67798;SDS011;54596;43.216;27.904;2023-06-22T05:19:12;29.88;;;10.35;;
67798;SDS011;54596;43.216;27.904;2023-06-22T05:21:38;29.17;;;15.02;;
67798;SDS011;54596;43.216;27.904;2023-06-22T05:24:03;18.98;;;12.55;;
67798;SDS011;54596;43.216;27.904;2023-06-22T05:26:30;17.27;;;8.98;;
67798;SDS011;54596;43.216;27.904;2023-06-22T05:28:57;17.13;;;9.98;;
67798;SDS011;54596;43.216;27.904;2023-06-22T05:31:22;18.02;;;9.88;;
67798;SDS011;54596;43.216;27.904;2023-06-22T05:33:49;25.25;;;9.85;;
67798;SDS011;54596;43.216;27.904;2023-06-22T05:36:16;19.45;;;8.57;;
67798;SDS011;54596;43.216;27.904;2023-06-22T05:38:42;21.05;;;9.57;;
67798;SDS011;54596;43.216;27.904;2023-06-22T05:41:07;18.60;;;10.70;;
67798;SDS011;54596;43.216;27.904;2023-06-22T05:43:33;18.05;;;9.65;;
67798;SDS011;54596;43.216;27.904;2023-06-22T05:45:59;23.13;;;10.93;;
67798;SDS011;54596;43.216;27.904;2023-06-22T05:48:26;20.85;;;9.60;;
67798;SDS011;54596;43.216;27.904;2023-06-22T05:50:52;21.67;;;9.60;;
67798;SDS011;54596;43.216;27.904;2023-06-22T05:53:18;21.45;;;7.93;;
67798;SDS011;54596;43.216;27.904;2023-06-22T05:55:44;16.20;;;8.77;;
67798;SDS011;54596;43.216;27.904;2023-06-22T05:58:09;16.55;;;7.60;;
67798;SDS011;54596;43.216;27.904;2023-06-22T06:00:35;16.73;;;7.18;;
67798;SDS011;54596;43.216;27.904;2023-06-22T06:03:01;16.90;;;7.78;;
67798;SDS011;54596;43.216;27.904;2023-06-22T06:05:33;18.40;;;7.38;;
67798;SDS011;54596;43.216;27.904;2023-06-22T06:08:03;27.80;;;10.90;;
67798;SDS011;54596;43.216;27.904;2023-06-22T06:12:55;20.83;;;8.82;;
67798;SDS011;54596;43.216;27.904;2023-06-22T06:15:21;29.10;;;8.82;;
67798;SDS011;54596;43.216;27.904;2023-06-22T06:20:20;28.60;;;8.20;;
67798;SDS011;54596;43.216;27.904;2023-06-22T06:22:48;18.80;;;8.63;;
67798;SDS011;54596;43.216;27.904;2023-06-22T06:25:14;21.27;;;8.70;;
67798;SDS011;54596;43.216;27.904;2023-06-22T06:27:44;17.92;;;8.60;;
67798;SDS011;54596;43.216;27.904;2023-06-22T06:30:11;14.80;;;8.93;;
67798;SDS011;54596;43.216;27.904;2023-06-22T06:32:37;19.83;;;8.68;;
67798;SDS011;54596;43.216;27.904;2023-06-22T06:35:04;21.08;;;8.70;;
67798;SDS011;54596;43.216;27.904;2023-06-22T06:37:31;20.90;;;7.95;;
67798;SDS011;54596;43.216;27.904;2023-06-22T06:39:57;16.48;;;7.55;;
67798;SDS011;54596;43.216;27.904;2023-06-22T06:42:22;19.48;;;7.55;;
67798;SDS011;54596;43.216;27.904;2023-06-22T06:44:49;16.48;;;6.88;;
67798;SDS011;54596;43.216;27.904;2023-06-22T06:47:15;19.67;;;6.60;;
67798;SDS011;54596;43.216;27.904;2023-06-22T06:49:42;17.23;;;6.90;;
67798;SDS011;54596;43.216;27.904;2023-06-22T06:52:07;17.02;;;6.38;;
67798;SDS011;54596;43.216;27.904;2023-06-22T06:54:33;12.93;;;5.85;;
67798;SDS011;54596;43.216;27.904;2023-06-22T06:56:59;11.43;;;5.00;;
67798;SDS011;54596;43.216;27.904;2023-06-22T06:59:24;14.32;;;5.47;;
67798;SDS011;54596;43.216;27.904;2023-06-22T07:01:50;17.30;;;7.28;;
67798;SDS011;54596;43.216;27.904;2023-06-22T07:04:15;17.33;;;6.68;;
67798;SDS011;54596;43.216;27.904;2023-06-22T07:06:41;17.45;;;6.07;;
67798;SDS011;54596;43.216;27.904;2023-06-22T07:09:07;22.20;;;6.72;;
67798;SDS011;54596;43.216;27.904;2023-06-22T07:11:32;22.33;;;6.50;;
67798;SDS011;54596;43.216;27.904;2023-06-22T07:13:58;14.43;;;6.70;;
67798;SDS011;54596;43.216;27.904;2023-06-22T07:16:25;15.40;;;6.85;;
67798;SDS011;54596;43.216;27.904;2023-06-22T07:18:52;13.40;;;6.90;;
67798;SDS011;54596;43.216;27.904;2023-06-22T07:21:18;12.25;;;5.72;;
67798;SDS011;54596;43.216;27.904;2023-06-22T07:23:43;20.17;;;8.45;;
67798;SDS011;54596;43.216;27.904;2023-06-22T07:26:09;15.55;;;7.07;;
67798;SDS011;54596;43.216;27.904;2023-06-22T07:28:34;13.90;;;6.47;;
67798;SDS011;54596;43.216;27.904;2023-06-22T07:31:03;15.07;;;6.93;;
67798;SDS011;54596;43.216;27.904;2023-06-22T07:33:29;19.98;;;7.00;;
67798;SDS011;54596;43.216;27.904;2023-06-22T07:35:55;10.50;;;5.13;;
67798;SDS011;54596;43.216;27.904;2023-06-22T07:38:20;11.85;;;5.57;;
67798;SDS011;54596;43.216;27.904;2023-06-22T07:40:47;18.88;;;6.18;;
67798;SDS011;54596;43.216;27.904;2023-06-22T07:43:12;11.52;;;5.00;;
67798;SDS011;54596;43.216;27.904;2023-06-22T07:45:38;8.98;;;4.82;;
67798;SDS011;54596;43.216;27.904;2023-06-22T07:48:05;12.85;;;4.45;;
67798;SDS011;54596;43.216;27.904;2023-06-22T07:50:31;9.50;;;4.70;;
67798;SDS011;54596;43.216;27.904;2023-06-22T07:52:57;12.30;;;4.60;;
67798;SDS011;54596;43.216;27.904;2023-06-22T07:55:22;12.13;;;4.47;;
67798;SDS011;54596;43.216;27.904;2023-06-22T07:57:48;10.55;;;4.78;;
67798;SDS011;54596;43.216;27.904;2023-06-22T08:00:14;10.15;;;5.03;;
67798;SDS011;54596;43.216;27.904;2023-06-22T08:02:40;10.60;;;4.40;;
67798;SDS011;54596;43.216;27.904;2023-06-22T08:05:07;10.48;;;4.55;;
67798;SDS011;54596;43.216;27.904;2023-06-22T08:07:37;19.70;;;5.00;;
67798;SDS011;54596;43.216;27.904;2023-06-22T08:10:09;9.30;;;4.80;;
67798;SDS011;54596;43.216;27.904;2023-06-22T08:12:36;10.35;;;4.97;;
67798;SDS011;54596;43.216;27.904;2023-06-22T08:15:01;9.60;;;5.07;;
67798;SDS011;54596;43.216;27.904;2023-06-22T08:17:26;10.10;;;5.13;;
67798;SDS011;54596;43.216;27.904;2023-06-22T08:19:52;12.00;;;5.45;;
67798;SDS011;54596;43.216;27.904;2023-06-22T08:22:17;11.02;;;5.68;;
67798;SDS011;54596;43.216;27.904;2023-06-22T08:24:44;13.05;;;5.60;;
67798;SDS011;54596;43.216;27.904;2023-06-22T08:27:10;9.73;;;5.60;;
67798;SDS011;54596;43.216;27.904;2023-06-22T08:29:40;15.60;;;5.83;;
67798;SDS011;54596;43.216;27.904;2023-06-22T08:32:08;13.55;;;5.40;;
67798;SDS011;54596;43.216;27.904;2023-06-22T08:34:34;14.75;;;5.82;;
67798;SDS011;54596;43.216;27.904;2023-06-22T08:36:59;15.23;;;5.60;;
67798;SDS011;54596;43.216;27.904;2023-06-22T08:39:25;14.65;;;5.93;;
67798;SDS011;54596;43.216;27.904;2023-06-22T08:41:52;11.30;;;5.60;;
67798;SDS011;54596;43.216;27.904;2023-06-22T08:44:18;10.95;;;6.03;;
67798;SDS011;54596;43.216;27.904;2023-06-22T08:46:44;13.30;;;6.22;;
67798;SDS011;54596;43.216;27.904;2023-06-22T08:49:10;14.75;;;6.07;;
67798;SDS011;54596;43.216;27.904;2023-06-22T08:51:36;12.88;;;6.47;;
67798;SDS011;54596;43.216;27.904;2023-06-22T08:54:01;9.63;;;5.60;;
67798;SDS011;54596;43.216;27.904;2023-06-22T08:56:27;10.77;;;5.78;;
67798;SDS011;54596;43.216;27.904;2023-06-22T08:58:52;14.50;;;6.40;;
67798;SDS011;54596;43.216;27.904;2023-06-22T09:01:18;15.48;;;5.90;;
67798;SDS011;54596;43.216;27.904;2023-06-22T09:03:44;12.77;;;5.90;;
67798;SDS011;54596;43.216;27.904;2023-06-22T09:06:19;12.90;;;6.20;;
67798;SDS011;54596;43.216;27.904;2023-06-22T09:08:47;13.65;;;6.55;;
67798;SDS011;54596;43.216;27.904;2023-06-22T09:11:14;11.90;;;6.22;;
67798;SDS011;54596;43.216;27.904;2023-06-22T09:13:39;11.35;;;6.22;;
67798;SDS011;54596;43.216;27.904;2023-06-22T09:16:05;13.27;;;6.18;;
67798;SDS011;54596;43.216;27.904;2023-06-22T09:18:30;12.20;;;6.70;;
67798;SDS011;54596;43.216;27.904;2023-06-22T09:20:56;12.40;;;6.15;;
67798;SDS011;54596;43.216;27.904;2023-06-22T09:23:21;13.57;;;6.60;;
67798;SDS011;54596;43.216;27.904;2023-06-22T09:25:47;16.60;;;6.55;;
67798;SDS011;54596;43.216;27.904;2023-06-22T09:28:13;13.55;;;6.57;;
67798;SDS011;54596;43.216;27.904;2023-06-22T09:30:39;17.60;;;7.10;;
67798;SDS011;54596;43.216;27.904;2023-06-22T09:33:05;13.85;;;6.72;;
67798;SDS011;54596;43.216;27.904;2023-06-22T09:35:30;12.63;;;7.32;;
67798;SDS011;54596;43.216;27.904;2023-06-22T09:37:56;12.73;;;7.43;;
67798;SDS011;54596;43.216;27.904;2023-06-22T09:40:21;15.38;;;7.35;;
67798;SDS011;54596;43.216;27.904;2023-06-22T09:42:47;12.68;;;8.02;;
67798;SDS011;54596;43.216;27.904;2023-06-22T09:45:12;12.27;;;8.02;;
67798;SDS011;54596;43.216;27.904;2023-06-22T09:47:38;15.65;;;10.18;;
67798;SDS011;54596;43.216;27.904;2023-06-22T09:50:03;13.38;;;7.90;;
67798;SDS011;54596;43.216;27.904;2023-06-22T09:52:30;15.20;;;8.10;;
67798;SDS011;54596;43.216;27.904;2023-06-22T09:54:55;14.18;;;8.13;;
67798;SDS011;54596;43.216;27.904;2023-06-22T09:57:21;15.13;;;8.32;;
67798;SDS011;54596;43.216;27.904;2023-06-22T09:59:46;12.10;;;7.97;;
67798;SDS011;54596;43.216;27.904;2023-06-22T10:02:12;13.77;;;7.90;;
67798;SDS011;54596;43.216;27.904;2023-06-22T10:04:38;15.57;;;7.97;;
67798;SDS011;54596;43.216;27.904;2023-06-22T10:07:05;15.13;;;8.20;;
67798;SDS011;54596;43.216;27.904;2023-06-22T10:09:31;16.90;;;8.23;;
67798;SDS011;54596;43.216;27.904;2023-06-22T10:11:56;13.10;;;7.75;;
67798;SDS011;54596;43.216;27.904;2023-06-22T10:14:22;13.30;;;7.57;;
67798;SDS011;54596;43.216;27.904;2023-06-22T10:16:49;16.17;;;7.80;;
67798;SDS011;54596;43.216;27.904;2023-06-22T10:19:14;15.48;;;9.32;;
67798;SDS011;54596;43.216;27.904;2023-06-22T10:21:40;11.98;;;7.70;;
67798;SDS011;54596;43.216;27.904;2023-06-22T10:24:05;11.55;;;7.65;;
67798;SDS011;54596;43.216;27.904;2023-06-22T10:26:35;12.30;;;8.05;;
67798;SDS011;54596;43.216;27.904;2023-06-22T10:29:03;11.73;;;7.72;;
67798;SDS011;54596;43.216;27.904;2023-06-22T10:31:29;14.25;;;7.60;;
67798;SDS011;54596;43.216;27.904;2023-06-22T10:33:55;11.15;;;7.32;;
67798;SDS011;54596;43.216;27.904;2023-06-22T10:36:21;21.27;;;7.63;;
67798;SDS011;54596;43.216;27.904;2023-06-22T10:38:47;16.88;;;7.50;;
67798;SDS011;54596;43.216;27.904;2023-06-22T10:41:13;17.85;;;7.38;;
67798;SDS011;54596;43.216;27.904;2023-06-22T10:43:39;13.00;;;7.45;;
67798;SDS011;54596;43.216;27.904;2023-06-22T10:46:04;13.57;;;7.80;;
67798;SDS011;54596;43.216;27.904;2023-06-22T10:48:31;15.38;;;8.48;;
67798;SDS011;54596;43.216;27.904;2023-06-22T10:50:56;14.50;;;8.45;;
67798;SDS011;54596;43.216;27.904;2023-06-22T10:53:22;15.00;;;8.75;;
67798;SDS011;54596;43.216;27.904;2023-06-22T10:55:47;15.25;;;9.40;;
67798;SDS011;54596;43.216;27.904;2023-06-22T10:58:13;13.73;;;8.73;;
67798;SDS011;54596;43.216;27.904;2023-06-22T11:00:38;14.80;;;8.68;;
67798;SDS011;54596;43.216;27.904;2023-06-22T11:03:05;12.40;;;7.97;;
67798;SDS011;54596;43.216;27.904;2023-06-22T11:05:30;12.20;;;8.55;;
67798;SDS011;54596;43.216;27.904;2023-06-22T11:07:56;17.15;;;9.10;;
67798;SDS011;54596;43.216;27.904;2023-06-22T11:10:22;16.17;;;8.93;;
67798;SDS011;54596;43.216;27.904;2023-06-22T11:12:47;13.07;;;8.60;;
67798;SDS011;54596;43.216;27.904;2023-06-22T11:15:13;13.43;;;8.93;;
67798;SDS011;54596;43.216;27.904;2023-06-22T11:17:38;14.45;;;8.75;;
67798;SDS011;54596;43.216;27.904;2023-06-22T11:20:04;14.50;;;9.07;;
67798;SDS011;54596;43.216;27.904;2023-06-22T11:22:39;16.27;;;9.88;;
67798;SDS011;54596;43.216;27.904;2023-06-22T11:25:06;15.95;;;9.85;;
67798;SDS011;54596;43.216;27.904;2023-06-22T11:27:32;15.70;;;9.40;;
67798;SDS011;54596;43.216;27.904;2023-06-22T11:29:57;17.13;;;9.75;;
67798;SDS011;54596;43.216;27.904;2023-06-22T11:32:23;23.90;;;10.50;;
67798;SDS011;54596;43.216;27.904;2023-06-22T11:34:49;14.23;;;9.68;;
67798;SDS011;54596;43.216;27.904;2023-06-22T11:37:15;18.42;;;9.73;;
67798;SDS011;54596;43.216;27.904;2023-06-22T11:39:41;26.13;;;9.90;;
67798;SDS011;54596;43.216;27.904;2023-06-22T11:42:07;14.50;;;9.40;;
67798;SDS011;54596;43.216;27.904;2023-06-22T11:44:33;15.85;;;10.80;;
67798;SDS011;54596;43.216;27.904;2023-06-22T11:46:58;13.32;;;9.85;;
67798;SDS011;54596;43.216;27.904;2023-06-22T11:49:25;16.33;;;10.15;;
67798;SDS011;54596;43.216;27.904;2023-06-22T11:51:51;17.05;;;9.05;;
67798;SDS011;54596;43.216;27.904;2023-06-22T11:54:17;12.00;;;8.90;;
67798;SDS011;54596;43.216;27.904;2023-06-22T11:56:42;13.48;;;9.45;;
67798;SDS011;54596;43.216;27.904;2023-06-22T11:59:08;17.25;;;9.57;;
67798;SDS011;54596;43.216;27.904;2023-06-22T12:01:33;16.85;;;9.27;;
67798;SDS011;54596;43.216;27.904;2023-06-22T12:03:59;15.38;;;9.95;;
67798;SDS011;54596;43.216;27.904;2023-06-22T12:06:24;19.00;;;10.40;;
67798;SDS011;54596;43.216;27.904;2023-06-22T12:08:50;12.35;;;9.18;;
67798;SDS011;54596;43.216;27.904;2023-06-22T12:11:15;17.58;;;9.38;;
67798;SDS011;54596;43.216;27.904;2023-06-22T12:13:41;14.38;;;9.93;;
67798;SDS011;54596;43.216;27.904;2023-06-22T12:16:06;13.63;;;10.18;;
67798;SDS011;54596;43.216;27.904;2023-06-22T12:18:32;13.35;;;10.10;;
67798;SDS011;54596;43.216;27.904;2023-06-22T12:20:58;14.48;;;10.50;;
67798;SDS011;54596;43.216;27.904;2023-06-22T12:23:23;16.02;;;10.57;;
67798;SDS011;54596;43.216;27.904;2023-06-22T12:25:49;17.63;;;10.18;;
67798;SDS011;54596;43.216;27.904;2023-06-22T12:28:14;14.82;;;9.52;;
67798;SDS011;54596;43.216;27.904;2023-06-22T12:30:39;14.30;;;11.13;;
67798;SDS011;54596;43.216;27.904;2023-06-22T12:33:05;16.20;;;11.13;;
67798;SDS011;54596;43.216;27.904;2023-06-22T12:35:30;16.08;;;10.45;;
67798;SDS011;54596;43.216;27.904;2023-06-22T12:37:56;17.27;;;8.88;;
67798;SDS011;54596;43.216;27.904;2023-06-22T12:40:21;14.23;;;8.35;;
67798;SDS011;54596;43.216;27.904;2023-06-22T12:42:47;13.82;;;8.30;;
67798;SDS011;54596;43.216;27.904;2023-06-22T12:45:12;12.65;;;8.05;;
67798;SDS011;54596;43.216;27.904;2023-06-22T12:47:38;12.63;;;7.90;;
67798;SDS011;54596;43.216;27.904;2023-06-22T12:50:04;14.68;;;8.15;;
67798;SDS011;54596;43.216;27.904;2023-06-22T12:52:30;14.52;;;8.60;;
67798;SDS011;54596;43.216;27.904;2023-06-22T12:54:57;15.52;;;9.60;;
67798;SDS011;54596;43.216;27.904;2023-06-22T12:57:22;12.80;;;8.05;;
67798;SDS011;54596;43.216;27.904;2023-06-22T12:59:48;16.15;;;9.95;;
67798;SDS011;54596;43.216;27.904;2023-06-22T13:02:14;13.40;;;8.48;;
67798;SDS011;54596;43.216;27.904;2023-06-22T13:04:39;14.55;;;9.20;;
67798;SDS011;54596;43.216;27.904;2023-06-22T13:07:05;11.98;;;8.43;;
67798;SDS011;54596;43.216;27.904;2023-06-22T13:09:30;13.05;;;8.00;;
67798;SDS011;54596;43.216;27.904;2023-06-22T13:11:56;15.65;;;8.23;;
67798;SDS011;54596;43.216;27.904;2023-06-22T13:14:21;12.05;;;7.60;;
67798;SDS011;54596;43.216;27.904;2023-06-22T13:16:47;13.38;;;7.90;;
67798;SDS011;54596;43.216;27.904;2023-06-22T13:19:12;10.85;;;7.47;;
67798;SDS011;54596;43.216;27.904;2023-06-22T13:21:38;12.65;;;7.72;;
67798;SDS011;54596;43.216;27.904;2023-06-22T13:24:03;11.55;;;7.10;;
67798;SDS011;54596;43.216;27.904;2023-06-22T13:26:31;13.68;;;7.13;;
67798;SDS011;54596;43.216;27.904;2023-06-22T13:28:56;12.57;;;7.47;;
67798;SDS011;54596;43.216;27.904;2023-06-22T13:31:22;16.15;;;7.32;;
67798;SDS011;54596;43.216;27.904;2023-06-22T13:33:48;11.25;;;6.90;;
67798;SDS011;54596;43.216;27.904;2023-06-22T13:36:14;13.13;;;7.18;;
67798;SDS011;54596;43.216;27.904;2023-06-22T13:38:40;12.18;;;7.40;;
67798;SDS011;54596;43.216;27.904;2023-06-22T13:41:05;14.05;;;7.28;;
67798;SDS011;54596;43.216;27.904;2023-06-22T13:43:31;13.80;;;6.55;;
67798;SDS011;54596;43.216;27.904;2023-06-22T13:45:57;10.82;;;6.85;;
67798;SDS011;54596;43.216;27.904;2023-06-22T13:48:23;10.32;;;6.68;;
67798;SDS011;54596;43.216;27.904;2023-06-22T13:50:51;12.45;;;7.20;;
67798;SDS011;54596;43.216;27.904;2023-06-22T13:53:17;12.63;;;7.97;;
67798;SDS011;54596;43.216;27.904;2023-06-22T13:55:43;12.40;;;7.28;;
67798;SDS011;54596;43.216;27.904;2023-06-22T13:58:08;10.48;;;7.18;;
67798;SDS011;54596;43.216;27.904;2023-06-22T14:00:34;11.57;;;6.70;;
67798;SDS011;54596;43.216;27.904;2023-06-22T14:02:59;12.60;;;7.40;;
67798;SDS011;54596;43.216;27.904;2023-06-22T14:05:25;13.70;;;7.25;;
67798;SDS011;54596;43.216;27.904;2023-06-22T14:07:51;13.52;;;7.47;;
67798;SDS011;54596;43.216;27.904;2023-06-22T14:10:17;15.70;;;7.95;;
67798;SDS011;54596;43.216;27.904;2023-06-22T14:12:42;14.02;;;7.07;;
67798;SDS011;54596;43.216;27.904;2023-06-22T14:15:08;12.73;;;7.45;;
67798;SDS011;54596;43.216;27.904;2023-06-22T14:17:33;11.50;;;7.15;;
67798;SDS011;54596;43.216;27.904;2023-06-22T14:19:59;10.55;;;6.97;;
67798;SDS011;54596;43.216;27.904;2023-06-22T14:22:24;15.18;;;7.13;;
67798;SDS011;54596;43.216;27.904;2023-06-22T14:24:52;72.60;;;12.10;;
67798;SDS011;54596;43.216;27.904;2023-06-22T14:27:17;13.43;;;8.10;;